KFNT

Bishop International Airport

Flint, Michigan, USA
KFNT 181723Z 1818/1918 VRB03KT P6SM BKN050 FM190100 VRB03KT P6SM SKC FM191300 13007KT P6SM SCT035
Issued Valid From Valid To
Jul-18 @ 17:23 UTC
(5 hours ago)
Jul-18 @ 18:00 UTC
(4 hours ago)
Jul-19 @ 18:00 UTC
(in 20 hours)
Jul-18 @ 18:00 to Jul-19 @ 01:00
KFNT 181723Z 1818/1918 VRB03KT P6SM BKN050
Wind Visibility Clouds
Variable at 3 knots Greater than 6 miles
  • Broken at 5,000' AGL
From Jul-19 @ 01:00 to Jul-19 @ 13:00
FM190100 VRB03KT P6SM SKC
Wind Visibility Clouds
Variable at 3 knots Greater than 6 miles
  • Clear skies
From Jul-19 @ 13:00 to Jul-19 @ 18:00
FM191300 13007KT P6SM SCT035
Wind Visibility Clouds
130° at 7 knots Greater than 6 miles
  • Scattered at 3,500' AGL
KFNT 181723Z 1818/1918 VRB03KT P6SM BKN050 FM190100 VRB03KT P6SM SKC FM191300 13007KT P6SM SCT035
Issued Jul-18 @ 17:23 UTC
(5 hours ago)
Valid From Jul-18 @ 18:00 UTC
(4 hours ago)
Valid To Jul-19 @ 18:00 UTC
(in 20 hours)
Jul-18 @ 18:00 - Jul-19 @ 01:00
Wind Visibility
Variable at 3 knots Greater than 6 miles
Clouds
  • Broken at 5,000' AGL
From Jul-19 @ 01:00 - Jul-19 @ 13:00
Wind Visibility
Variable at 3 knots Greater than 6 miles
Clouds
  • Clear skies
From Jul-19 @ 13:00 - Jul-19 @ 18:00
Wind Visibility
130° at 7 knots Greater than 6 miles
Clouds
  • Scattered at 3,500' AGL